Time;durP1;ratioP1;P1;durP2;ratioP2;P2;SDS_P1;SDS_P2;PMS_P1;PMS_P2;Temp;Humidity;BMP_temperature;BMP_pressure;BME280_temperature;BME280_humidity;BME280_pressure;Samples;Min_cycle;Max_cycle;Signal;HPM_P1;HPM_P2
2022/09/08 00:01:11;;;;;;;5.70;5.30;;;19.60;99.90;;;;;;4997843;28;20507;-83
2022/09/08 00:03:38;;;;;;;5.10;4.60;;;19.60;99.90;;;;;;4999039;28;20481;-84
2022/09/08 00:06:10;;;;;;;5.27;4.87;;;19.60;99.90;;;;;;4998169;28;20478;-83
2022/09/08 00:08:39;;;;;;;5.63;5.13;;;19.60;99.90;;;;;;4998583;28;20497;-83
2022/09/08 00:11:09;;;;;;;7.27;6.67;;;19.60;99.90;;;;;;5001119;28;20470;-80
2022/09/08 00:13:38;;;;;;;7.70;5.30;;;19.60;99.90;;;;;;5004648;28;20906;-82
2022/09/08 00:16:07;;;;;;;5.37;5.00;;;19.70;99.90;;;;;;4996711;28;20527;-83
2022/09/08 00:18:35;;;;;;;6.50;5.80;;;19.70;99.90;;;;;;4997197;28;20453;-84
2022/09/08 00:21:05;;;;;;;6.47;5.97;;;19.70;99.90;;;;;;4997523;28;20454;-84
2022/09/08 00:23:33;;;;;;;5.50;5.00;;;19.70;99.90;;;;;;4997941;28;20455;-84
2022/09/08 00:26:00;;;;;;;5.40;5.00;;;19.70;99.90;;;;;;4997557;28;20479;-83
2022/09/08 00:28:29;;;;;;;5.33;4.97;;;19.70;99.90;;;;;;4996849;28;20474;-84
2022/09/08 00:30:55;;;;;;;5.07;4.67;;;19.70;99.90;;;;;;4997541;28;20452;-83
2022/09/08 00:33:22;;;;;;;5.37;4.97;;;19.70;99.90;;;;;;4998292;28;20470;-83
2022/09/08 00:35:50;;;;;;;5.63;5.13;;;19.70;99.90;;;;;;4997770;28;20491;-84
2022/09/08 00:38:19;;;;;;;6.77;5.07;;;19.70;99.90;;;;;;4997038;28;20466;-84
2022/09/08 00:40:47;;;;;;;5.43;5.03;;;19.70;99.90;;;;;;4998444;28;20472;-84
2022/09/08 00:43:37;;;;;;;5.00;4.60;;;19.70;99.90;;;;;;4997911;28;20514;-84
2022/09/08 00:46:16;;;;;;;5.53;5.10;;;19.60;99.90;;;;;;4998484;28;20478;-84
2022/09/08 00:48:47;;;;;;;6.27;5.77;;;19.60;99.90;;;;;;4997614;28;20469;-84
2022/09/08 00:51:16;;;;;;;5.70;5.20;;;19.60;99.90;;;;;;4999071;28;20530;-84
2022/09/08 00:53:44;;;;;;;6.37;5.87;;;19.60;99.90;;;;;;4998010;28;20493;-83
2022/09/08 00:56:11;;;;;;;6.83;5.53;;;19.50;99.90;;;;;;4998552;28;20490;-84
2022/09/08 00:58:41;;;;;;;6.27;5.67;;;19.50;99.90;;;;;;4998701;28;20495;-84
2022/09/08 01:01:08;;;;;;;6.17;5.77;;;19.50;99.90;;;;;;4998384;28;20463;-84
2022/09/08 01:03:37;;;;;;;13.00;6.10;;;19.50;99.90;;;;;;4997911;28;20509;-83
2022/09/08 01:14:55;;;;;;;8.77;5.57;;;19.50;99.90;;;;;;4997967;28;20453;-84
2022/09/08 01:17:28;;;;;;;6.23;5.73;;;19.50;99.90;;;;;;4997185;28;20462;-84
2022/09/08 01:19:59;;;;;;;6.30;5.80;;;19.50;99.90;;;;;;4996122;28;20985;-84
2022/09/08 01:22:47;;;;;;;6.70;6.20;;;19.50;99.90;;;;;;4996493;28;20966;-84
2022/09/08 01:25:32;;;;;;;7.47;6.07;;;19.50;99.90;;;;;;4997019;28;20478;-83
2022/09/08 01:28:07;;;;;;;6.10;5.50;;;19.50;99.90;;;;;;4977657;28;20486;-84
2022/09/08 01:30:35;;;;;;;6.47;5.97;;;19.50;99.90;;;;;;4994346;28;20463;-84
2022/09/08 01:33:06;;;;;;;6.53;5.90;;;19.50;99.90;;;;;;4997379;28;21174;-84
2022/09/08 01:35:38;;;;;;;6.27;5.77;;;19.50;99.90;;;;;;4997603;28;20842;-83
2022/09/08 01:38:07;;;;;;;6.47;5.93;;;19.60;99.90;;;;;;4997402;28;20467;-84
2022/09/08 01:40:41;;;;;;;6.17;5.67;;;19.50;99.90;;;;;;4999202;28;20463;-84
2022/09/08 01:43:10;;;;;;;6.73;6.17;;;19.50;99.90;;;;;;5000675;28;20520;-84
2022/09/08 01:46:07;;;;;;;6.23;5.83;;;19.50;99.90;;;;;;5001149;28;20478;-84
2022/09/08 01:48:55;;;;;;;5.53;5.13;;;19.50;99.90;;;;;;4999835;28;20466;-84
2022/09/08 01:51:25;;;;;;;5.00;4.40;;;19.20;99.90;;;;;;4981492;28;20436;-84
2022/09/08 01:53:56;;;;;;;6.30;5.60;;;19.20;99.90;;;;;;4981611;28;20455;-84
2022/09/08 01:56:23;;;;;;;6.73;5.60;;;19.20;99.90;;;;;;4999822;28;20548;-84
2022/09/08 01:58:51;;;;;;;5.50;5.10;;;19.20;99.90;;;;;;5002070;28;20470;-84
2022/09/08 02:01:18;;;;;;;7.50;5.87;;;19.20;99.90;;;;;;5000089;28;20455;-85
2022/09/08 02:03:45;;;;;;;4.80;4.40;;;19.10;99.90;;;;;;5014547;28;20438;-82
2022/09/08 02:06:11;;;;;;;5.43;4.93;;;19.10;99.90;;;;;;5003191;28;20473;-84
2022/09/08 02:08:38;;;;;;;4.87;4.00;;;19.00;99.90;;;;;;5000428;28;20465;-84
2022/09/08 02:11:06;;;;;;;5.10;4.47;;;18.90;99.90;;;;;;5000277;28;20831;-83
2022/09/08 02:13:33;;;;;;;4.23;3.90;;;18.90;99.90;;;;;;5000851;28;20458;-84
2022/09/08 02:16:07;;;;;;;5.17;4.07;;;18.90;99.90;;;;;;5000064;28;20493;-84
2022/09/08 02:18:34;;;;;;;4.30;4.00;;;18.80;99.90;;;;;;5000246;28;20457;-84
2022/09/08 02:21:04;;;;;;;3.27;2.97;;;18.80;99.90;;;;;;5000167;28;20957;-83
2022/09/08 02:23:30;;;;;;;2.80;2.60;;;18.70;99.90;;;;;;5000369;28;20466;-84
2022/09/08 02:25:58;;;;;;;2.70;2.50;;;18.70;99.90;;;;;;4999855;28;20481;-84
2022/09/08 02:28:25;;;;;;;2.77;2.57;;;18.50;99.90;;;;;;5001006;28;20461;-83
2022/09/08 02:30:56;;;;;;;5.90;2.80;;;18.40;99.90;;;;;;5006545;28;20482;-83
2022/09/08 02:33:24;;;;;;;2.97;2.77;;;18.40;99.90;;;;;;5006494;28;20461;-83
2022/09/08 02:35:51;;;;;;;2.10;2.00;;;18.40;99.90;;;;;;5006728;28;20498;-83
2022/09/08 02:38:18;;;;;;;3.47;3.20;;;18.30;99.90;;;;;;5006511;28;20465;-83
2022/09/08 02:40:45;;;;;;;3.57;2.87;;;18.40;99.90;;;;;;5006132;28;20462;-83
2022/09/08 02:43:12;;;;;;;2.40;2.30;;;18.40;99.90;;;;;;5007454;28;20453;-83
2022/09/08 02:45:39;;;;;;;2.63;2.43;;;18.30;99.90;;;;;;5006950;28;20500;-83
2022/09/08 02:48:06;;;;;;;2.90;2.70;;;18.20;99.90;;;;;;5006687;28;20508;-82
2022/09/08 02:50:35;;;;;;;1.77;1.67;;;18.20;99.90;;;;;;5006812;28;20454;-83
2022/09/08 02:53:01;;;;;;;2.10;2.00;;;18.20;99.90;;;;;;5007228;28;20457;-83
2022/09/08 02:55:28;;;;;;;2.70;2.50;;;18.20;99.90;;;;;;5006138;28;20477;-82
2022/09/08 02:57:55;;;;;;;3.43;2.30;;;18.10;99.90;;;;;;5011015;28;20442;-81
2022/09/08 03:00:22;;;;;;;3.50;2.10;;;18.10;99.90;;;;;;5012431;28;20446;-83
2022/09/08 03:02:48;;;;;;;2.33;2.23;;;18.10;99.90;;;;;;5006208;28;20469;-82
2022/09/08 03:05:15;;;;;;;3.23;1.60;;;18.00;99.90;;;;;;5005963;28;20564;-83
2022/09/08 03:07:43;;;;;;;3.07;2.20;;;18.00;99.90;;;;;;5006178;28;20454;-83
2022/09/08 03:10:10;;;;;;;2.50;2.30;;;18.00;99.90;;;;;;5006607;28;20457;-83
2022/09/08 03:12:37;;;;;;;1.80;1.70;;;17.90;99.90;;;;;;5006165;28;20832;-82
2022/09/08 03:15:04;;;;;;;2.97;2.87;;;17.90;99.90;;;;;;5005648;28;20486;-83
2022/09/08 03:17:30;;;;;;;2.53;2.33;;;17.80;99.90;;;;;;5006458;28;20489;-82
2022/09/08 03:19:57;;;;;;;2.00;1.90;;;17.90;99.90;;;;;;5005795;28;20446;-83
2022/09/08 03:22:24;;;;;;;2.53;2.43;;;17.90;99.90;;;;;;5006081;28;20454;-83
2022/09/08 03:24:52;;;;;;;2.53;2.37;;;17.90;99.90;;;;;;5005951;28;21010;-82
2022/09/08 03:27:19;;;;;;;3.40;2.10;;;17.90;99.90;;;;;;5005791;28;20458;-82
2022/09/08 03:29:45;;;;;;;2.67;1.73;;;18.00;99.90;;;;;;4986161;28;20463;-83
2022/09/08 03:32:12;;;;;;;1.60;1.50;;;17.90;99.90;;;;;;4981086;28;20915;-82
2022/09/08 03:34:39;;;;;;;2.13;2.03;;;17.80;99.90;;;;;;5000083;28;20479;-82
2022/09/08 03:37:06;;;;;;;2.10;2.00;;;17.80;99.90;;;;;;4999978;28;20500;-82
2022/09/08 03:39:32;;;;;;;2.47;1.73;;;17.80;99.90;;;;;;4998282;28;20468;-82
2022/09/08 03:42:01;;;;;;;1.70;1.60;;;17.80;99.90;;;;;;4998949;28;20458;-82
2022/09/08 03:44:28;;;;;;;1.60;1.50;;;17.70;99.90;;;;;;4997875;28;20467;-82
2022/09/08 03:46:55;;;;;;;3.10;1.27;;;17.70;99.90;;;;;;5002818;28;20833;-83
2022/09/08 03:49:22;;;;;;;1.70;1.60;;;17.70;99.90;;;;;;5003547;28;20460;-83
2022/09/08 03:51:49;;;;;;;4.40;1.50;;;17.60;99.90;;;;;;4999362;28;20461;-84
2022/09/08 03:57:01;;;;;;;2.30;2.10;;;17.40;99.90;;;;;;4998785;28;20492;-84
2022/09/08 03:59:28;;;;;;;1.50;1.33;;;17.40;99.90;;;;;;4998565;28;20834;-84
2022/09/08 04:01:55;;;;;;;1.57;1.23;;;17.30;99.90;;;;;;4998505;28;20457;-84
2022/09/08 04:04:22;;;;;;;1.40;1.30;;;17.40;99.90;;;;;;4997844;28;20462;-84
2022/09/08 04:06:49;;;;;;;1.10;1.00;;;17.30;99.90;;;;;;4997953;28;20496;-82
2022/09/08 04:09:17;;;;;;;1.23;1.13;;;17.30;99.90;;;;;;4999647;28;20462;-84
2022/09/08 04:11:43;;;;;;;1.50;1.40;;;17.30;99.90;;;;;;5005037;28;20464;-83
2022/09/08 04:14:11;;;;;;;1.23;1.13;;;17.20;99.90;;;;;;5002676;28;20994;-85
2022/09/08 04:16:40;;;;;;;1.40;1.30;;;17.30;99.90;;;;;;5001413;28;20492;-84
2022/09/08 04:19:07;;;;;;;2.50;1.17;;;17.20;99.90;;;;;;5002099;28;20509;-84
2022/09/08 04:21:34;;;;;;;1.80;1.70;;;17.20;99.90;;;;;;5000760;28;20451;-84
2022/09/08 04:24:01;;;;;;;1.90;1.30;;;17.20;99.90;;;;;;5001821;28;20516;-84
2022/09/08 04:26:28;;;;;;;1.10;1.10;;;17.20;99.90;;;;;;5000184;28;20477;-84
2022/09/08 04:28:56;;;;;;;1.27;1.17;;;17.20;99.90;;;;;;5000714;28;20495;-84
2022/09/08 04:41:50;;;;;;;2.17;1.40;;;16.90;99.90;;;;;;4881766;29;20436;-83
2022/09/08 04:44:17;;;;;;;1.97;1.60;;;16.90;99.90;;;;;;4883770;29;21070;-84
2022/09/08 04:46:44;;;;;;;1.20;1.10;;;16.90;99.90;;;;;;4988973;28;20450;-84
2022/09/08 04:49:11;;;;;;;1.10;1.10;;;16.90;99.90;;;;;;5000702;28;20458;-84
2022/09/08 04:51:38;;;;;;;1.70;1.60;;;16.90;99.90;;;;;;5000054;28;20458;-84
2022/09/08 04:54:05;;;;;;;1.03;1.03;;;16.90;99.90;;;;;;4999788;28;20468;-84
2022/09/08 04:56:32;;;;;;;1.87;1.77;;;16.90;99.90;;;;;;4999296;28;20528;-84
2022/09/08 04:59:01;;;;;;;1.57;1.47;;;17.00;99.90;;;;;;4999767;28;20462;-84
2022/09/08 05:01:30;;;;;;;2.27;1.60;;;16.90;99.90;;;;;;4996402;28;20571;-84
2022/09/08 05:04:00;;;;;;;1.40;1.30;;;16.90;99.90;;;;;;4996278;28;20460;-84
2022/09/08 05:06:27;;;;;;;1.70;1.60;;;16.90;99.90;;;;;;4996496;28;20476;-84
2022/09/08 05:08:56;;;;;;;1.63;1.53;;;17.00;99.90;;;;;;4998811;28;20873;-84
2022/09/08 05:11:25;;;;;;;4.33;2.00;;;16.90;99.90;;;;;;4999064;28;20457;-84
2022/09/08 05:13:52;;;;;;;2.23;1.40;;;17.00;99.90;;;;;;4997716;28;20472;-84
2022/09/08 05:16:22;;;;;;;3.40;1.63;;;17.00;99.90;;;;;;5002902;28;20485;-84
2022/09/08 05:18:49;;;;;;;1.40;1.23;;;17.00;99.90;;;;;;5003870;28;20464;-85
2022/09/08 05:21:17;;;;;;;2.03;1.47;;;17.10;99.90;;;;;;5001445;28;20990;-85
2022/09/08 05:23:44;;;;;;;1.30;1.20;;;17.10;99.90;;;;;;5003148;28;20457;-85
2022/09/08 05:26:13;;;;;;;1.80;1.70;;;17.10;99.90;;;;;;5002653;28;20487;-84
2022/09/08 05:28:42;;;;;;;1.30;1.30;;;16.90;99.90;;;;;;5003311;28;20865;-84
2022/09/08 05:31:10;;;;;;;2.33;1.10;;;16.80;99.90;;;;;;5003667;28;20460;-84
2022/09/08 05:33:38;;;;;;;1.60;1.50;;;16.90;99.90;;;;;;5003350;28;20831;-84
2022/09/08 05:36:11;;;;;;;2.07;1.53;;;16.90;99.90;;;;;;5002750;28;20514;-84
2022/09/08 05:38:38;;;;;;;2.00;1.60;;;16.90;99.90;;;;;;5003001;28;20438;-84
2022/09/08 05:41:05;;;;;;;1.40;1.30;;;16.90;99.90;;;;;;5002964;28;20456;-84
2022/09/08 05:43:32;;;;;;;1.90;1.10;;;16.80;99.90;;;;;;5002755;28;20452;-84
2022/09/08 05:45:59;;;;;;;1.90;1.77;;;16.80;99.90;;;;;;5002588;28;20483;-86
2022/09/08 05:48:26;;;;;;;1.17;1.00;;;16.90;99.90;;;;;;5001126;28;20462;-84
2022/09/08 05:50:54;;;;;;;1.43;1.33;;;16.90;99.90;;;;;;5000307;28;20482;-85
2022/09/08 05:53:21;;;;;;;6.30;1.83;;;17.00;99.90;;;;;;5004109;28;20453;-85
2022/09/08 05:55:56;;;;;;;1.60;1.50;;;17.00;99.90;;;;;;5003346;28;20464;-84
2022/09/08 05:58:22;;;;;;;1.60;1.50;;;16.90;99.90;;;;;;5003723;28;20495;-84
2022/09/08 06:00:55;;;;;;;2.37;1.83;;;16.80;99.90;;;;;;5003559;28;20456;-85
2022/09/08 06:03:42;;;;;;;1.70;1.60;;;16.90;99.90;;;;;;5003125;28;20464;-85
2022/09/08 06:06:16;;;;;;;4.07;2.00;;;16.90;99.90;;;;;;4997994;28;20481;-85
2022/09/08 06:08:48;;;;;;;1.97;1.80;;;16.90;99.90;;;;;;4997891;28;20467;-84
2022/09/08 06:11:15;;;;;;;3.93;1.47;;;17.00;99.90;;;;;;4999023;28;20538;-84
2022/09/08 06:13:42;;;;;;;2.43;1.50;;;16.90;99.90;;;;;;4997690;28;20443;-85
2022/09/08 06:16:12;;;;;;;1.70;1.60;;;16.90;99.90;;;;;;4997054;28;20504;-85
2022/09/08 06:18:44;;;;;;;1.63;1.53;;;17.00;99.90;;;;;;4998700;28;20875;-85
2022/09/08 06:21:14;;;;;;;1.70;1.60;;;16.90;99.90;;;;;;5000353;28;20442;-86
2022/09/08 06:23:41;;;;;;;1.00;1.00;;;16.80;99.90;;;;;;5000004;28;20453;-85
2022/09/08 06:26:45;;;;;;;1.50;1.07;;;16.70;99.90;;;;;;5000372;28;20538;-85
2022/09/08 06:29:16;;;;;;;0.97;0.83;;;16.60;99.90;;;;;;4999217;28;20465;-85
2022/09/08 06:31:51;;;;;;;1.33;1.10;;;16.70;99.90;;;;;;4997715;28;20438;-85
2022/09/08 06:34:22;;;;;;;1.23;1.00;;;16.70;99.90;;;;;;4999767;28;20441;-85
2022/09/08 06:36:53;;;;;;;1.33;1.10;;;16.70;99.90;;;;;;4997690;28;20472;-85
2022/09/08 06:39:25;;;;;;;2.37;1.00;;;16.70;99.90;;;;;;5002307;28;20449;-81
2022/09/08 06:41:58;;;;;;;3.03;1.27;;;16.80;99.90;;;;;;4999343;28;20457;-80
2022/09/08 06:44:30;;;;;;;1.13;0.63;;;16.70;99.90;;;;;;4996930;28;20461;-81
2022/09/08 06:46:58;;;;;;;1.03;0.93;;;16.70;99.90;;;;;;4996802;28;20458;-82
2022/09/08 06:49:27;;;;;;;1.13;1.13;;;16.60;99.90;;;;;;4996451;28;20456;-84
2022/09/08 06:52:17;;;;;;;1.03;0.80;;;16.70;99.90;;;;;;4996973;28;20454;-84
2022/09/08 06:55:02;;;;;;;1.10;1.00;;;16.70;99.90;;;;;;4995486;28;20472;-85
2022/09/08 10:31:15;;;;;;;2.50;1.00;;;20.90;99.90;;;;;;5041018;22;20669;-85
2022/09/08 10:34:04;;;;;;;1.07;0.80;;;20.90;99.90;;;;;;5017073;28;20462;-85
2022/09/08 10:36:51;;;;;;;1.47;1.37;;;20.70;99.90;;;;;;5033888;28;20981;-83
2022/09/08 10:39:38;;;;;;;0.73;0.73;;;20.60;99.90;;;;;;5022081;28;20462;-81
2022/09/08 10:42:35;;;;;;;2.10;1.00;;;20.60;99.90;;;;;;5040629;28;20930;-81
2022/09/08 10:45:23;;;;;;;1.63;1.00;;;20.60;99.90;;;;;;5034454;28;20461;-82
2022/09/08 10:48:29;;;;;;;1.13;0.80;;;20.60;99.90;;;;;;5034781;28;20462;-84
2022/09/08 10:51:06;;;;;;;1.30;1.00;;;20.70;99.90;;;;;;5022609;28;20479;-80
2022/09/08 10:53:47;;;;;;;3.17;1.00;;;20.80;99.90;;;;;;5025351;28;20473;-81
2022/09/08 10:56:14;;;;;;;0.80;0.80;;;20.80;99.90;;;;;;5018030;28;20942;-82
2022/09/08 10:59:26;;;;;;;1.80;1.70;;;20.90;99.90;;;;;;5015256;28;20490;-82
2022/09/08 11:02:18;;;;;;;0.70;0.60;;;20.80;98.90;;;;;;4952875;29;20593;-84
2022/09/08 11:05:21;;;;;;;0.93;0.93;;;20.70;99.60;;;;;;5020493;28;20450;-85
2022/09/08 11:08:17;;;;;;;1.10;0.60;;;20.70;99.80;;;;;;5018081;28;20447;-82
2022/09/08 11:11:06;;;;;;;1.80;1.60;;;20.50;99.50;;;;;;5028214;28;20474;-82
2022/09/08 11:13:36;;;;;;;0.87;0.73;;;20.60;99.70;;;;;;5033684;28;20816;-83
2022/09/08 11:16:40;;;;;;;1.43;1.33;;;20.70;99.90;;;;;;5035000;28;20478;-82
2022/09/08 11:19:33;;;;;;;0.70;0.70;;;21.10;99.70;;;;;;5034542;28;20484;-82
2022/09/08 11:22:24;;;;;;;2.30;1.40;;;21.40;98.70;;;;;;5029345;28;20490;-85
2022/09/08 11:25:10;;;;;;;2.30;1.17;;;21.70;98.70;;;;;;5024658;28;20474;-83
2022/09/08 11:27:42;;;;;;;1.63;1.00;;;21.80;97.70;;;;;;5034990;28;20459;-82
2022/09/08 11:30:18;;;;;;;1.97;0.57;;;22.20;98.30;;;;;;5034806;28;20485;-82
2022/09/08 11:32:59;;;;;;;1.10;1.00;;;22.80;96.70;;;;;;5035792;28;20484;-82
2022/09/08 11:35:43;;;;;;;0.80;0.80;;;23.30;96.10;;;;;;5035610;28;20457;-82
2022/09/08 11:38:27;;;;;;;2.57;0.97;;;24.00;94.60;;;;;;5035627;28;20501;-83
2022/09/08 11:41:19;;;;;;;0.87;0.83;;;24.90;92.90;;;;;;5035469;28;20470;-83
2022/09/08 11:44:01;;;;;;;4.03;1.20;;;25.30;90.80;;;;;;5036233;28;20454;-83
2022/09/08 11:46:50;;;;;;;0.80;0.80;;;25.40;88.60;;;;;;5035483;28;20995;-82
2022/09/08 11:49:47;;;;;;;0.90;0.83;;;25.20;87.30;;;;;;5035416;28;20454;-82
2022/09/08 11:52:27;;;;;;;1.63;1.00;;;24.80;86.70;;;;;;4974237;28;20447;-83
2022/09/08 11:55:24;;;;;;;1.30;0.60;;;24.40;87.40;;;;;;5015705;28;20473;-84
2022/09/08 11:58:09;;;;;;;2.60;0.83;;;23.90;87.90;;;;;;4996084;28;20486;-83
2022/09/08 12:00:54;;;;;;;1.87;0.90;;;23.80;89.40;;;;;;5024568;28;20473;-83
2022/09/08 12:03:51;;;;;;;1.90;1.67;;;23.50;89.80;;;;;;5035476;28;20963;-83
2022/09/08 12:06:59;;;;;;;1.70;1.03;;;23.20;90.70;;;;;;5035611;28;20456;-84
2022/09/08 12:09:56;;;;;;;1.37;1.27;;;23.10;91.50;;;;;;5018467;28;21035;-84
2022/09/08 12:12:41;;;;;;;1.37;0.73;;;22.90;91.90;;;;;;5016028;28;20464;-83
2022/09/08 12:15:26;;;;;;;1.10;1.00;;;22.50;92.40;;;;;;5023428;28;20455;-85
2022/09/08 12:18:11;;;;;;;1.23;0.93;;;22.20;97.90;;;;;;5040586;28;20484;-84
2022/09/08 12:20:52;;;;;;;0.70;0.70;;;21.90;98.10;;;;;;5041373;28;20549;-85
2022/09/08 12:23:36;;;;;;;1.10;1.00;;;21.40;98.00;;;;;;5045695;28;20462;-82
2022/09/08 12:26:33;;;;;;;1.13;1.03;;;21.40;99.40;;;;;;5024470;28;20455;-81
2022/09/08 12:29:27;;;;;;;2.33;1.40;;;21.40;99.90;;;;;;5029039;28;20457;-82
2022/09/08 12:32:24;;;;;;;1.30;1.20;;;21.40;99.90;;;;;;5041467;28;20443;-83
2022/09/08 12:35:22;;;;;;;1.50;1.07;;;21.50;99.90;;;;;;5040541;28;20550;-83
2022/09/08 12:37:52;;;;;;;2.20;1.40;;;21.70;99.90;;;;;;5019818;28;20498;-83
2022/09/08 12:40:38;;;;;;;1.83;0.90;;;22.50;99.90;;;;;;5042727;28;20474;-86
2022/09/08 12:43:20;;;;;;;1.00;0.83;;;23.40;97.30;;;;;;5039352;28;20445;-85
2022/09/08 12:46:16;;;;;;;1.20;0.80;;;24.40;95.80;;;;;;5035854;28;20468;-84
2022/09/08 12:48:55;;;;;;;1.63;0.80;;;25.30;92.50;;;;;;5041496;28;20442;-85
2022/09/08 12:51:25;;;;;;;0.50;0.50;;;26.10;91.60;;;;;;5041633;28;20482;-86
2022/09/08 12:54:25;;;;;;;0.77;0.77;;;26.70;88.70;;;;;;5045675;28;20541;-84
2022/09/08 12:57:12;;;;;;;1.27;1.00;;;27.20;85.10;;;;;;5039007;28;20450;-86
2022/09/08 12:59:52;;;;;;;1.63;0.93;;;27.90;83.60;;;;;;5039986;28;20487;-85
2022/09/08 13:02:42;;;;;;;0.80;0.70;;;28.20;76.80;;;;;;5040040;28;20461;-84
2022/09/08 13:05:25;;;;;;;7.77;1.53;;;28.90;75.80;;;;;;5039201;28;20472;-85
2022/09/08 13:07:59;;;;;;;0.80;0.80;;;29.50;71.00;;;;;;5040080;28;20461;-85
2022/09/08 13:11:25;;;;;;;1.10;1.10;;;29.10;68.20;;;;;;5039759;28;20472;-85
2022/09/08 13:13:55;;;;;;;1.00;0.63;;;28.70;69.30;;;;;;5031449;28;20451;-84
2022/09/08 13:16:27;;;;;;;0.70;0.70;;;28.30;69.40;;;;;;5036064;28;20452;-81
2022/09/08 13:19:02;;;;;;;0.93;0.93;;;28.60;66.40;;;;;;5034519;28;20487;-84
2022/09/08 13:21:52;;;;;;;1.20;1.00;;;28.90;66.30;;;;;;5034859;28;20473;-82
2022/09/08 13:24:26;;;;;;;4.00;1.23;;;29.20;66.20;;;;;;5036347;28;20452;-84
2022/09/08 13:27:07;;;;;;;0.80;0.80;;;29.40;64.00;;;;;;5045109;28;20453;-82
2022/09/08 13:29:54;;;;;;;0.60;0.60;;;29.10;65.40;;;;;;5043307;28;20484;-81
2022/09/08 13:32:46;;;;;;;0.83;0.83;;;29.00;65.50;;;;;;5042631;28;20449;-81
2022/09/08 13:35:29;;;;;;;1.20;0.70;;;28.40;65.40;;;;;;5045499;28;20799;-85
2022/09/08 13:38:08;;;;;;;1.07;0.70;;;28.50;67.20;;;;;;5046057;28;20491;-83
2022/09/08 13:40:43;;;;;;;0.80;0.67;;;28.50;64.20;;;;;;5045202;28;20483;-82
2022/09/08 13:43:26;;;;;;;1.30;1.00;;;28.20;63.30;;;;;;5045388;28;20511;-83
2022/09/08 13:46:03;;;;;;;0.70;0.70;;;28.10;66.30;;;;;;5046539;28;20447;-84
2022/09/08 13:48:51;;;;;;;0.70;0.70;;;28.80;66.60;;;;;;5050667;28;20450;-84
2022/09/08 13:51:45;;;;;;;1.20;1.10;;;29.40;66.00;;;;;;5052334;28;20473;-83
2022/09/08 13:54:55;;;;;;;3.00;0.80;;;29.90;62.70;;;;;;5052675;28;20533;-83
2022/09/08 13:57:35;;;;;;;1.27;0.80;;;30.40;60.70;;;;;;5051679;28;20459;-82
2022/09/08 14:00:09;;;;;;;1.00;0.80;;;29.90;60.10;;;;;;5037503;28;20492;-82
2022/09/08 14:02:44;;;;;;;1.70;1.17;;;29.60;60.50;;;;;;5038266;28;20824;-85
2022/09/08 14:05:19;;;;;;;1.23;0.90;;;29.50;62.50;;;;;;5041435;28;20494;-86
2022/09/08 14:07:51;;;;;;;2.30;0.60;;;29.30;60.70;;;;;;5037547;28;20463;-83
2022/09/08 14:10:54;;;;;;;2.57;1.10;;;29.10;61.60;;;;;;5037708;28;20477;-83
2022/09/08 14:13:31;;;;;;;1.50;1.40;;;29.00;63.40;;;;;;5036432;28;20452;-81
2022/09/08 14:16:06;;;;;;;1.17;0.70;;;28.30;62.30;;;;;;5036193;28;20507;-82
2022/09/08 14:18:50;;;;;;;1.10;1.00;;;27.70;63.00;;;;;;5036508;28;20579;-82
2022/09/08 14:21:25;;;;;;;1.20;0.67;;;27.20;63.90;;;;;;5036152;28;20476;-84
2022/09/08 14:24:10;;;;;;;0.90;0.90;;;27.30;63.90;;;;;;5036969;28;20451;-84
2022/09/08 14:27:07;;;;;;;1.30;1.20;;;27.50;64.50;;;;;;5039633;28;20546;-83
2022/09/08 14:29:55;;;;;;;1.20;0.73;;;28.10;65.00;;;;;;5036707;28;20479;-84
2022/09/08 14:32:39;;;;;;;0.70;0.70;;;28.20;63.00;;;;;;5038522;28;20450;-80
2022/09/08 14:35:21;;;;;;;3.00;1.00;;;27.90;63.50;;;;;;5038649;28;20450;-81
2022/09/08 14:37:55;;;;;;;0.97;0.73;;;27.80;63.50;;;;;;5038777;28;20463;-82
2022/09/08 14:40:24;;;;;;;2.60;1.10;;;27.10;63.50;;;;;;5038961;28;20470;-82
2022/09/08 14:43:07;;;;;;;1.13;0.93;;;26.50;65.30;;;;;;5038194;28;20455;-83
2022/09/08 14:45:45;;;;;;;1.00;0.90;;;26.00;66.10;;;;;;5036820;28;20464;-82
2022/09/08 14:48:16;;;;;;;2.57;1.10;;;25.40;67.70;;;;;;5036431;28;20460;-83
2022/09/08 14:51:15;;;;;;;1.27;0.83;;;25.30;69.10;;;;;;5035681;28;20470;-83
2022/09/08 14:54:03;;;;;;;1.60;1.33;;;24.70;70.20;;;;;;5031407;28;20965;-83
2022/09/08 14:56:32;;;;;;;0.80;0.80;;;24.40;73.40;;;;;;5037701;28;20454;-84
2022/09/08 14:59:04;;;;;;;2.00;1.77;;;24.40;73.60;;;;;;5037036;28;20482;-84
2022/09/08 15:01:36;;;;;;;2.27;1.00;;;24.20;73.50;;;;;;5037711;28;20475;-83
2022/09/08 15:04:18;;;;;;;1.00;0.90;;;24.30;74.30;;;;;;5042741;28;20466;-85
2022/09/08 15:06:52;;;;;;;1.00;1.00;;;24.80;73.50;;;;;;5043994;28;20532;-82
2022/09/08 15:09:49;;;;;;;0.77;0.70;;;25.60;72.10;;;;;;5040171;28;20454;-84
2022/09/08 15:12:32;;;;;;;1.37;0.70;;;26.20;69.10;;;;;;5040512;28;20460;-85
2022/09/08 15:15:14;;;;;;;1.77;1.07;;;26.50;67.50;;;;;;5041248;28;20480;-84
2022/09/08 15:17:52;;;;;;;0.97;0.80;;;26.40;67.00;;;;;;5039040;28;20454;-83
2022/09/08 15:20:28;;;;;;;0.87;0.87;;;26.20;67.50;;;;;;5040339;28;20582;-82
2022/09/08 15:23:10;;;;;;;1.10;1.07;;;26.00;69.90;;;;;;5038607;28;20475;-82
2022/09/08 15:25:51;;;;;;;1.20;1.20;;;25.40;69.70;;;;;;5036892;28;20457;-85
2022/09/08 15:28:27;;;;;;;1.10;0.80;;;25.10;69.00;;;;;;5037653;28;20453;-83
2022/09/08 15:31:17;;;;;;;0.90;0.90;;;24.70;70.60;;;;;;5038693;28;20484;-85
2022/09/08 15:33:57;;;;;;;2.03;1.10;;;24.60;71.50;;;;;;5040769;28;20942;-85
2022/09/08 15:36:35;;;;;;;2.50;1.37;;;24.20;70.50;;;;;;5033344;28;20931;-84
2022/09/08 15:39:12;;;;;;;0.73;0.73;;;24.00;71.20;;;;;;5040231;28;20482;-85
2022/09/08 15:41:46;;;;;;;1.13;1.00;;;23.90;71.70;;;;;;5041865;28;20487;-85
2022/09/08 15:47:20;;;;;;;2.40;1.10;;;23.50;72.90;;;;;;5026511;28;20461;-84
2022/09/08 15:49:57;;;;;;;0.90;0.90;;;23.40;73.20;;;;;;5044439;28;20464;-84
2022/09/08 15:52:37;;;;;;;1.90;1.10;;;23.50;74.40;;;;;;5044945;28;20822;-85
2022/09/08 15:55:09;;;;;;;3.10;1.07;;;23.60;73.30;;;;;;5042274;28;20457;-84
2022/09/08 15:57:52;;;;;;;2.70;1.23;;;23.90;74.10;;;;;;5035669;28;20459;-83
2022/09/08 16:00:33;;;;;;;1.30;1.17;;;24.00;73.20;;;;;;5037275;28;20497;-85
2022/09/08 16:03:02;;;;;;;1.20;1.10;;;24.10;74.90;;;;;;5044410;28;20453;-84
2022/09/08 16:05:42;;;;;;;3.20;1.10;;;24.20;74.20;;;;;;5043707;28;20453;-86
2022/09/08 16:08:32;;;;;;;2.10;1.33;;;24.10;73.70;;;;;;5042835;28;20977;-86
2022/09/08 16:11:10;;;;;;;0.80;0.80;;;24.10;73.50;;;;;;5042704;28;20473;-86
2022/09/08 16:13:48;;;;;;;2.00;1.40;;;23.80;73.70;;;;;;5022753;28;20482;-85
2022/09/08 16:16:52;;;;;;;1.53;1.33;;;23.80;75.10;;;;;;5028146;28;20472;-83
2022/09/08 16:19:22;;;;;;;1.17;1.00;;;23.90;75.60;;;;;;5027191;28;20511;-85
2022/09/08 16:22:19;;;;;;;2.17;0.90;;;23.80;75.40;;;;;;5029749;28;20465;-82
2022/09/08 16:24:54;;;;;;;1.27;1.10;;;23.90;75.90;;;;;;5011559;28;20573;-85
2022/09/08 16:27:50;;;;;;;1.90;1.17;;;24.00;74.70;;;;;;5022811;28;20437;-82
2022/09/08 16:30:42;;;;;;;1.20;1.10;;;23.90;75.00;;;;;;5035916;28;20477;-82
2022/09/08 16:33:22;;;;;;;2.90;1.87;;;23.80;74.60;;;;;;5030155;28;20446;-81
2022/09/08 16:36:04;;;;;;;1.53;1.10;;;23.60;75.40;;;;;;5017009;28;20444;-82
2022/09/08 16:38:39;;;;;;;1.37;0.90;;;23.20;73.60;;;;;;5015056;28;20438;-82
2022/09/08 16:41:13;;;;;;;2.93;1.20;;;23.00;75.10;;;;;;5032810;28;20898;-83
2022/09/08 16:43:46;;;;;;;1.10;1.10;;;22.80;75.00;;;;;;5036988;28;20431;-82
2022/09/08 16:46:21;;;;;;;1.23;0.90;;;22.60;75.40;;;;;;5033881;28;20452;-83
2022/09/08 16:48:57;;;;;;;3.83;1.13;;;22.60;76.10;;;;;;5016757;28;20451;-83
2022/09/08 16:51:40;;;;;;;3.03;1.27;;;22.50;75.00;;;;;;5018734;28;20484;-82
2022/09/08 16:54:33;;;;;;;1.87;1.03;;;22.50;75.50;;;;;;5035809;28;20466;-81
2022/09/08 16:57:10;;;;;;;1.30;1.07;;;22.40;75.50;;;;;;5016301;28;20821;-86
2022/09/08 16:59:50;;;;;;;1.10;1.00;;;22.60;75.20;;;;;;5037983;28;20497;-80
2022/09/08 17:02:35;;;;;;;2.60;1.43;;;23.00;74.80;;;;;;5036552;28;20484;-81
2022/09/08 17:05:24;;;;;;;1.90;1.73;;;23.50;73.80;;;;;;5039040;28;20464;-85
2022/09/08 17:08:03;;;;;;;2.73;0.90;;;23.90;72.20;;;;;;5039217;28;20887;-79
2022/09/08 17:10:38;;;;;;;1.33;1.10;;;24.10;71.80;;;;;;5035332;28;20466;-82
2022/09/08 17:13:16;;;;;;;1.63;0.83;;;23.90;71.00;;;;;;5021324;28;20501;-83
2022/09/08 17:16:08;;;;;;;1.67;1.57;;;23.70;71.60;;;;;;5036638;28;20826;-83
2022/09/08 17:18:47;;;;;;;1.93;1.40;;;23.50;72.50;;;;;;5038616;28;20461;-83
2022/09/08 17:21:44;;;;;;;2.10;1.10;;;23.00;73.80;;;;;;5039147;28;22223;-82
2022/09/08 17:24:16;;;;;;;2.03;1.20;;;22.90;74.70;;;;;;5038219;28;20444;-83
2022/09/08 17:27:09;;;;;;;1.50;1.40;;;22.80;75.10;;;;;;5039555;28;21004;-83
2022/09/08 17:30:03;;;;;;;1.20;1.10;;;22.60;76.00;;;;;;5033562;28;20522;-83
2022/09/08 17:32:52;;;;;;;2.03;0.80;;;22.40;77.10;;;;;;5037381;28;20447;-82
2022/09/08 17:35:22;;;;;;;3.50;1.40;;;22.10;78.40;;;;;;5035257;28;20446;-82